createdAt,value
2017-09-16T00:00:09.313Z,1006.39
2017-09-16T00:01:18.149Z,1006.39
2017-09-16T00:02:26.987Z,1006.38
2017-09-16T00:03:35.826Z,1006.32
2017-09-16T00:04:44.661Z,1006.3
2017-09-16T00:05:53.495Z,1006.35
2017-09-16T00:07:02.340Z,1006.34
2017-09-16T00:08:11.175Z,1006.32
2017-09-16T00:09:20.012Z,1006.34
2017-09-16T00:10:28.847Z,1006.34
2017-09-16T00:11:37.684Z,1006.36
2017-09-16T00:12:46.522Z,1006.35
2017-09-16T00:13:55.357Z,1006.37
2017-09-16T00:15:04.192Z,1006.4
2017-09-16T00:16:13.027Z,1006.41
2017-09-16T00:17:21.865Z,1006.44
2017-09-16T00:18:30.700Z,1006.37
2017-09-16T00:19:39.533Z,1006.36
2017-09-16T00:20:48.369Z,1006.36
2017-09-16T00:21:57.198Z,1006.33
2017-09-16T00:23:06.040Z,1006.32
2017-09-16T00:24:14.880Z,1006.3
2017-09-16T00:25:23.713Z,1006.26
2017-09-16T00:26:32.542Z,1006.25
2017-09-16T00:27:41.381Z,1006.24
2017-09-16T00:28:50.212Z,1006.2
2017-09-16T00:29:59.052Z,1006.2
2017-09-16T00:31:07.888Z,1006.19
2017-09-16T00:32:16.726Z,1006.2
2017-09-16T00:33:25.554Z,1006.2
2017-09-16T00:34:34.391Z,1006.18
2017-09-16T00:35:43.222Z,1006.2
2017-09-16T00:36:52.057Z,1006.2
2017-09-16T00:38:00.892Z,1006.25
2017-09-16T00:39:09.721Z,1006.26
2017-09-16T00:40:18.558Z,1006.2
2017-09-16T00:41:27.394Z,1006.21
2017-09-16T00:42:36.229Z,1006.2
2017-09-16T00:43:45.059Z,1006.22
2017-09-16T00:44:53.893Z,1006.22
2017-09-16T00:46:03.055Z,1006.22
2017-09-16T00:47:11.888Z,1006.17
2017-09-16T00:48:20.726Z,1006.18
2017-09-16T00:49:29.560Z,1006.17
2017-09-16T00:50:38.396Z,1006.21
2017-09-16T00:51:47.230Z,1006.14
2017-09-16T00:52:56.066Z,1006.17
2017-09-16T00:54:05.224Z,1006.17
2017-09-16T00:55:14.054Z,1006.15
2017-09-16T00:56:22.893Z,1006.17
2017-09-16T00:57:31.724Z,1006.12
2017-09-16T00:58:40.561Z,1006.12
2017-09-16T00:59:49.395Z,1006.1
2017-09-16T01:00:58.228Z,1006.12
2017-09-16T01:02:07.066Z,1006.13
2017-09-16T01:03:15.902Z,1006.17
2017-09-16T01:04:24.733Z,1006.12
2017-09-16T01:05:33.570Z,1006.12
2017-09-16T01:06:42.403Z,1006.16
2017-09-16T01:07:51.237Z,1006.12
2017-09-16T01:09:00.066Z,1006.15
2017-09-16T01:10:08.899Z,1006.19
2017-09-16T01:11:17.732Z,1006.15
2017-09-16T01:12:26.569Z,1006.17
2017-09-16T01:13:35.401Z,1006.19
2017-09-16T01:14:44.237Z,1006.14
2017-09-16T01:15:53.068Z,1006.17
2017-09-16T01:17:01.902Z,1006.15
2017-09-16T01:18:10.742Z,1006.14
2017-09-16T01:19:19.572Z,1006.13
2017-09-16T01:20:28.407Z,1006.13
2017-09-16T01:21:37.235Z,1006.13
2017-09-16T01:22:46.075Z,1006.12
2017-09-16T01:23:54.913Z,1006.05
2017-09-16T01:25:03.750Z,1006.12
2017-09-16T01:26:12.582Z,1006.11
2017-09-16T01:27:21.414Z,1006.14
2017-09-16T01:28:30.250Z,1006.15
2017-09-16T01:29:39.081Z,1006.15
2017-09-16T01:30:47.918Z,1006.15
2017-09-16T01:31:57.070Z,1006.12
2017-09-16T01:33:05.906Z,1006.14
2017-09-16T01:34:14.738Z,1006.11
2017-09-16T01:35:23.574Z,1006.13
2017-09-16T01:36:32.408Z,1006.12
2017-09-16T01:37:41.239Z,1006.16
2017-09-16T01:38:50.074Z,1006.15
2017-09-16T01:39:58.909Z,1006.14
2017-09-16T01:41:07.744Z,1006.18
2017-09-16T01:42:16.577Z,1006.1
2017-09-16T01:43:25.415Z,1006.16
2017-09-16T01:44:34.249Z,1006.13
2017-09-16T01:45:43.086Z,1006.11
2017-09-16T01:46:51.925Z,1006.13
2017-09-16T01:48:00.760Z,1006.13
2017-09-16T01:49:09.596Z,1006.19
2017-09-16T01:50:18.421Z,1006.19
2017-09-16T01:51:27.255Z,1006.18
2017-09-16T01:52:36.092Z,1006.2
2017-09-16T01:53:44.926Z,1006.2
2017-09-16T01:54:53.756Z,1006.24
2017-09-16T01:56:02.587Z,1006.21
2017-09-16T01:57:11.422Z,1006.2
2017-09-16T01:58:20.256Z,1006.23
2017-09-16T01:59:29.093Z,1006.2
2017-09-16T02:00:37.922Z,1006.24
2017-09-16T02:01:46.762Z,1006.21
2017-09-16T02:02:55.599Z,1006.2
2017-09-16T02:04:04.430Z,1006.15
2017-09-16T02:05:13.268Z,1006.14
2017-09-16T02:06:22.100Z,1006.12
2017-09-16T02:07:30.946Z,1006.12
2017-09-16T02:08:39.775Z,1006.15
2017-09-16T02:09:48.606Z,1006.13
2017-09-16T02:10:57.442Z,1006.11
2017-09-16T02:12:06.273Z,1006.13
2017-09-16T02:13:15.112Z,1006.14
2017-09-16T02:14:23.947Z,1006.16
2017-09-16T02:15:33.102Z,1006.14
2017-09-16T02:16:41.931Z,1006.09
2017-09-16T02:17:50.770Z,1006.1
2017-09-16T02:18:59.596Z,1006.1
2017-09-16T02:20:08.439Z,1006.1
2017-09-16T02:21:17.275Z,1006.06
2017-09-16T02:22:26.103Z,1006.09
2017-09-16T02:23:34.938Z,1006.14
2017-09-16T02:24:43.775Z,1006.14
2017-09-16T02:25:52.607Z,1006.11
2017-09-16T02:27:01.442Z,1006.13
2017-09-16T02:28:10.598Z,1006.12
2017-09-16T02:29:19.427Z,1006.13
2017-09-16T02:30:28.263Z,1006.13
2017-09-16T02:31:37.103Z,1006.12
2017-09-16T02:32:46.259Z,1006.12
2017-09-16T02:33:55.096Z,1006.11
2017-09-16T02:35:03.928Z,1006.13
2017-09-16T02:36:12.764Z,1006.13
2017-09-16T02:37:21.601Z,1006.09
2017-09-16T02:38:30.432Z,1006.11
2017-09-16T02:39:39.274Z,1006.09
2017-09-16T02:40:48.161Z,1006.05
2017-09-16T02:41:56.996Z,1006.06
2017-09-16T02:43:05.831Z,1006.07
2017-09-16T02:44:14.664Z,1006.08
2017-09-16T02:45:23.502Z,1006.08
2017-09-16T02:46:32.342Z,1006.09
2017-09-16T02:47:41.168Z,1006.07
2017-09-16T02:48:50.008Z,1006.08
2017-09-16T02:49:58.842Z,1006.07
2017-09-16T02:51:07.668Z,1006.1
2017-09-16T02:52:16.509Z,1006.1
2017-09-16T02:53:25.348Z,1006.11
2017-09-16T02:54:34.177Z,1006.1
2017-09-16T02:55:43.016Z,1006.11
2017-09-16T02:56:51.849Z,1006.09
2017-09-16T02:58:00.680Z,1006.1
2017-09-16T02:59:09.516Z,1006.07
2017-09-16T03:00:18.677Z,1006.09
2017-09-16T03:01:27.833Z,1006.06
2017-09-16T03:02:36.672Z,1006.13
2017-09-16T03:03:45.819Z,1006.12
2017-09-16T03:04:54.655Z,1006.12
2017-09-16T03:06:03.486Z,1006.18
2017-09-16T03:07:12.320Z,1006.18
2017-09-16T03:08:21.157Z,1006.14
2017-09-16T03:09:29.985Z,1006.11
2017-09-16T03:10:38.820Z,1006.12
2017-09-16T03:11:47.651Z,1006.15
2017-09-16T03:12:56.487Z,1006.14
2017-09-16T03:14:05.319Z,1006.13
2017-09-16T03:15:14.156Z,1006.08
2017-09-16T03:16:23.309Z,1006.06
2017-09-16T03:17:33.243Z,1006.05
2017-09-16T03:18:42.077Z,1006.05
2017-09-16T03:19:51.563Z,1006.06
2017-09-16T03:21:00.398Z,1006.05
2017-09-16T03:22:09.231Z,1006.07
2017-09-16T03:23:18.068Z,1006.07
2017-09-16T03:24:26.895Z,1006
2017-09-16T03:25:36.055Z,1006.02
2017-09-16T03:26:44.888Z,1006.04
2017-09-16T03:27:53.724Z,1006.04
2017-09-16T03:29:02.556Z,1006.07
2017-09-16T03:30:11.389Z,1006.06
2017-09-16T03:31:20.234Z,1006.05
2017-09-16T03:32:29.075Z,1006.06
2017-09-16T03:33:37.911Z,1006.05
2017-09-16T03:34:46.744Z,1006.1
2017-09-16T03:35:55.906Z,1006.1
2017-09-16T03:37:04.745Z,1006.08
2017-09-16T03:38:13.898Z,1006.07
2017-09-16T03:39:22.741Z,1006.02
2017-09-16T03:40:31.576Z,1006.05
2017-09-16T03:41:40.406Z,1006
2017-09-16T03:42:49.239Z,1006.04
2017-09-16T03:43:58.077Z,1006.03
2017-09-16T03:45:06.916Z,1006.01
2017-09-16T03:46:15.750Z,1006.06
2017-09-16T03:47:24.581Z,1006.03
2017-09-16T03:48:33.411Z,1006.04
2017-09-16T03:49:42.250Z,1006.04
2017-09-16T03:50:51.085Z,1006.06
2017-09-16T03:51:59.916Z,1006.04
2017-09-16T03:53:08.752Z,1006.06
2017-09-16T03:54:17.582Z,1006.1
2017-09-16T03:55:26.414Z,1006.09
2017-09-16T03:56:35.248Z,1006.13
2017-09-16T03:57:44.084Z,1006.09
2017-09-16T03:58:52.912Z,1006.07
2017-09-16T04:00:01.742Z,1006.01
2017-09-16T04:01:10.579Z,1006.04
2017-09-16T04:02:19.414Z,1006.06
2017-09-16T04:03:28.249Z,1006.03
2017-09-16T04:04:37.081Z,1006.05
2017-09-16T04:05:45.913Z,1006.03
2017-09-16T04:06:55.074Z,1006.08
2017-09-16T04:08:03.911Z,1006.06
2017-09-16T04:09:12.744Z,1006.05
2017-09-16T04:10:21.582Z,1006.05
2017-09-16T04:11:30.414Z,1006.1
2017-09-16T04:12:39.244Z,1006.09
2017-09-16T04:13:48.075Z,1006.12
2017-09-16T04:14:56.912Z,1006.15
2017-09-16T04:16:05.740Z,1006.18
2017-09-16T04:17:14.581Z,1006.2
2017-09-16T04:18:23.418Z,1006.16
2017-09-16T04:19:32.249Z,1006.19
2017-09-16T04:20:41.087Z,1006.17
2017-09-16T04:21:49.924Z,1006.18
2017-09-16T04:22:58.757Z,1006.16
2017-09-16T04:24:07.591Z,1006.14
2017-09-16T04:25:16.427Z,1006.16
2017-09-16T04:26:25.259Z,1006.17
2017-09-16T04:27:34.095Z,1006.17
2017-09-16T04:28:42.932Z,1006.19
2017-09-16T04:29:51.765Z,1006.19
2017-09-16T04:31:00.601Z,1006.21
2017-09-16T04:32:09.431Z,1006.19
2017-09-16T04:33:18.268Z,1006.22
2017-09-16T04:34:27.102Z,1006.18
2017-09-16T04:35:35.934Z,1006.2
2017-09-16T04:36:44.765Z,1006.22
2017-09-16T04:37:53.954Z,1006.26
2017-09-16T04:39:02.785Z,1006.28
2017-09-16T04:40:11.619Z,1006.26
2017-09-16T04:41:20.449Z,1006.25
2017-09-16T04:42:29.285Z,1006.24
2017-09-16T04:43:38.116Z,1006.27
2017-09-16T04:44:46.952Z,1006.28
2017-09-16T04:45:55.784Z,1006.26
2017-09-16T04:47:04.622Z,1006.3
2017-09-16T04:48:13.450Z,1006.34
2017-09-16T04:49:22.288Z,1006.29
2017-09-16T04:50:31.124Z,1006.33
2017-09-16T04:51:39.955Z,1006.35
2017-09-16T04:52:48.791Z,1006.34
2017-09-16T04:53:57.946Z,1006.35
2017-09-16T04:55:06.778Z,1006.32
2017-09-16T04:56:15.611Z,1006.31
2017-09-16T04:57:24.448Z,1006.35
2017-09-16T04:58:33.283Z,1006.31
2017-09-16T04:59:42.119Z,1006.33
2017-09-16T05:00:50.952Z,1006.28
2017-09-16T05:01:59.781Z,1006.32
2017-09-16T05:03:08.616Z,1006.29
2017-09-16T05:04:17.451Z,1006.31
2017-09-16T05:05:26.283Z,1006.29
2017-09-16T05:06:35.122Z,1006.26
2017-09-16T05:07:43.953Z,1006.25
2017-09-16T05:08:52.782Z,1006.26
2017-09-16T05:10:01.618Z,1006.25
2017-09-16T05:11:10.453Z,1006.21
2017-09-16T05:12:19.608Z,1006.22
2017-09-16T05:13:28.795Z,1006.21
2017-09-16T05:14:37.628Z,1006.24
2017-09-16T05:15:46.457Z,1006.27
2017-09-16T05:16:55.291Z,1006.23
2017-09-16T05:18:04.133Z,1006.25
2017-09-16T05:19:12.963Z,1006.27
2017-09-16T05:20:21.796Z,1006.28
2017-09-16T05:21:30.633Z,1006.28
2017-09-16T05:22:39.466Z,1006.35
2017-09-16T05:23:48.303Z,1006.32
2017-09-16T05:24:57.133Z,1006.35
2017-09-16T05:26:05.967Z,1006.37
2017-09-16T05:27:14.793Z,1006.37
2017-09-16T05:28:23.631Z,1006.34
2017-09-16T05:29:32.459Z,1006.31
2017-09-16T05:30:41.298Z,1006.35
2017-09-16T05:31:50.137Z,1006.3
2017-09-16T05:32:59.288Z,1006.32
2017-09-16T05:34:08.119Z,1006.33
2017-09-16T05:35:16.957Z,1006.3
2017-09-16T05:36:25.791Z,1006.36
2017-09-16T05:37:34.621Z,1006.33
2017-09-16T05:38:43.454Z,1006.36
2017-09-16T05:39:52.285Z,1006.34
2017-09-16T05:41:01.118Z,1006.37
2017-09-16T05:42:10.209Z,1006.33
2017-09-16T05:43:19.038Z,1006.35
2017-09-16T05:44:27.872Z,1006.39
2017-09-16T05:45:36.704Z,1006.39
2017-09-16T05:46:45.541Z,1006.37
2017-09-16T05:47:54.403Z,1006.32
2017-09-16T05:49:03.267Z,1006.33
2017-09-16T05:50:12.119Z,1006.35
2017-09-16T05:51:20.967Z,1006.36
2017-09-16T05:52:29.914Z,1006.36
2017-09-16T05:53:39.483Z,1006.38
2017-09-16T05:54:48.319Z,1006.39
2017-09-16T05:55:57.155Z,1006.39
2017-09-16T05:57:06.315Z,1006.4
2017-09-16T05:58:15.169Z,1006.39
2017-09-16T05:59:24.406Z,1006.39
2017-09-16T06:00:33.240Z,1006.4
2017-09-16T06:01:42.071Z,1006.41
2017-09-16T06:02:50.908Z,1006.4
2017-09-16T06:03:59.745Z,1006.42
2017-09-16T06:05:08.639Z,1006.42
2017-09-16T06:06:17.475Z,1006.44
2017-09-16T06:07:26.309Z,1006.44
2017-09-16T06:08:35.141Z,1006.41
2017-09-16T06:09:43.979Z,1006.42
2017-09-16T06:10:52.843Z,1006.42
2017-09-16T06:12:01.783Z,1006.41
2017-09-16T06:13:10.624Z,1006.4
2017-09-16T06:14:19.455Z,1006.4
2017-09-16T06:15:28.350Z,1006.42
2017-09-16T06:16:37.191Z,1006.4
2017-09-16T06:17:46.017Z,1006.44
2017-09-16T06:18:54.849Z,1006.45
2017-09-16T06:20:03.685Z,1006.44
2017-09-16T06:21:12.520Z,1006.46
2017-09-16T06:22:21.356Z,1006.45
2017-09-16T06:23:30.196Z,1006.47
2017-09-16T06:24:39.028Z,1006.49
2017-09-16T06:25:47.864Z,1006.48
2017-09-16T06:26:56.703Z,1006.45
2017-09-16T06:28:05.540Z,1006.46
2017-09-16T06:29:14.371Z,1006.46
2017-09-16T06:30:23.204Z,1006.47
2017-09-16T06:31:32.046Z,1006.49
2017-09-16T06:32:40.879Z,1006.49
2017-09-16T06:33:49.713Z,1006.5
2017-09-16T06:34:58.552Z,1006.54
2017-09-16T06:36:07.387Z,1006.52
2017-09-16T06:37:16.227Z,1006.55
2017-09-16T06:38:25.943Z,1006.53
2017-09-16T06:39:34.775Z,1006.56
2017-09-16T06:40:43.608Z,1006.59
2017-09-16T06:41:52.449Z,1006.61
2017-09-16T06:43:01.284Z,1006.61
2017-09-16T06:44:10.123Z,1006.64
2017-09-16T06:45:19.317Z,1006.66
2017-09-16T06:46:28.162Z,1006.67
2017-09-16T06:47:36.994Z,1006.7
2017-09-16T06:48:45.882Z,1006.7
2017-09-16T06:49:54.753Z,1006.71
2017-09-16T06:51:03.779Z,1006.73
2017-09-16T06:52:12.616Z,1006.72
2017-09-16T06:53:21.470Z,1006.75
2017-09-16T06:54:30.321Z,1006.73
2017-09-16T06:55:39.231Z,1006.78
2017-09-16T06:56:48.063Z,1006.81
2017-09-16T06:57:57.313Z,1006.83
2017-09-16T06:59:06.146Z,1006.78
2017-09-16T07:00:14.979Z,1006.85
2017-09-16T07:01:23.815Z,1006.87
2017-09-16T07:02:32.657Z,1006.88
2017-09-16T07:03:41.491Z,1006.9
2017-09-16T07:04:50.344Z,1006.89
2017-09-16T07:05:59.159Z,1006.91
2017-09-16T07:07:08.317Z,1006.95
2017-09-16T07:08:17.158Z,1006.98
2017-09-16T07:09:25.991Z,1006.95
2017-09-16T07:10:34.824Z,1007
2017-09-16T07:11:43.981Z,1006.99
2017-09-16T07:12:52.815Z,1006.99
2017-09-16T07:14:01.646Z,1007.01
2017-09-16T07:15:10.481Z,1007.01
2017-09-16T07:16:19.319Z,1007.02
2017-09-16T07:17:28.471Z,1007.05
2017-09-16T07:18:37.307Z,1007.04
2017-09-16T07:19:46.143Z,1007.05
2017-09-16T07:20:54.981Z,1007.03
2017-09-16T07:22:03.823Z,1007.03
2017-09-16T07:23:12.654Z,1007.04
2017-09-16T07:24:21.485Z,1007.03
2017-09-16T07:25:30.320Z,1007.04
2017-09-16T07:26:39.156Z,1007.05
2017-09-16T07:27:47.998Z,1007.08
2017-09-16T07:28:56.840Z,1007.11
2017-09-16T07:30:05.670Z,1007.09
2017-09-16T07:31:14.504Z,1007.08
2017-09-16T07:32:23.343Z,1007.06
2017-09-16T07:33:32.175Z,1007.08
2017-09-16T07:34:41.333Z,1007.07
2017-09-16T07:35:50.167Z,1007.05
2017-09-16T07:36:59.002Z,1007.02
2017-09-16T07:38:07.833Z,1007.06
2017-09-16T07:39:16.670Z,1007.08
2017-09-16T07:40:25.508Z,1007.08
2017-09-16T07:41:34.347Z,1007.11
2017-09-16T07:42:43.177Z,1007.13
2017-09-16T07:43:52.004Z,1007.12
2017-09-16T07:45:00.839Z,1007.13
2017-09-16T07:46:09.671Z,1007.11
2017-09-16T07:47:18.502Z,1007.1
2017-09-16T07:48:27.337Z,1007.17
2017-09-16T07:49:36.175Z,1007.18
2017-09-16T07:50:45.011Z,1007.2
2017-09-16T07:51:53.843Z,1007.2
2017-09-16T07:53:02.677Z,1007.23
2017-09-16T07:54:11.514Z,1007.23
2017-09-16T07:55:20.347Z,1007.21
2017-09-16T07:56:29.182Z,1007.21
2017-09-16T07:57:38.021Z,1007.23
2017-09-16T07:58:46.853Z,1007.23
2017-09-16T07:59:55.691Z,1007.26
2017-09-16T08:01:04.521Z,1007.29
2017-09-16T08:02:13.351Z,1007.3
2017-09-16T08:03:22.191Z,1007.34
2017-09-16T08:04:31.025Z,1007.38
2017-09-16T08:05:39.861Z,1007.4
2017-09-16T08:06:49.019Z,1007.45
2017-09-16T08:07:57.857Z,1007.49
2017-09-16T08:09:07.048Z,1007.46
2017-09-16T08:10:15.886Z,1007.49
2017-09-16T08:11:24.720Z,1007.43
2017-09-16T08:12:33.553Z,1007.47
2017-09-16T08:13:42.390Z,1007.45
2017-09-16T08:14:51.224Z,1007.5
2017-09-16T08:16:00.060Z,1007.54
2017-09-16T08:17:09.221Z,1007.56
2017-09-16T08:18:18.057Z,1007.55
2017-09-16T08:19:26.891Z,1007.58
2017-09-16T08:20:35.720Z,1007.59
2017-09-16T08:21:44.557Z,1007.62
2017-09-16T08:22:53.389Z,1007.6
2017-09-16T08:24:02.552Z,1007.64
2017-09-16T08:25:11.385Z,1007.63
2017-09-16T08:26:20.220Z,1007.62
2017-09-16T08:27:29.057Z,1007.59
2017-09-16T08:28:37.893Z,1007.59
2017-09-16T08:29:46.729Z,1007.56
2017-09-16T08:30:55.561Z,1007.58
2017-09-16T08:32:04.402Z,1007.57
2017-09-16T08:33:13.233Z,1007.58
2017-09-16T08:34:22.073Z,1007.56
2017-09-16T08:35:30.907Z,1007.5
2017-09-16T08:36:39.744Z,1007.48
2017-09-16T08:37:48.576Z,1007.44
2017-09-16T08:38:57.740Z,1007.43
2017-09-16T08:40:06.581Z,1007.41
2017-09-16T08:41:15.417Z,1007.4
2017-09-16T08:42:24.257Z,1007.4
2017-09-16T08:43:33.091Z,1007.43
2017-09-16T08:44:42.257Z,1007.49
2017-09-16T08:45:51.095Z,1007.46
2017-09-16T08:46:59.929Z,1007.49
2017-09-16T08:48:08.767Z,1007.48
2017-09-16T08:49:17.601Z,1007.47
2017-09-16T08:50:26.441Z,1007.47
2017-09-16T08:51:35.592Z,1007.46
2017-09-16T08:52:44.431Z,1007.49
2017-09-16T08:53:53.265Z,1007.44
2017-09-16T08:55:02.096Z,1007.46
2017-09-16T08:56:11.255Z,1007.44
2017-09-16T08:57:20.093Z,1007.41
2017-09-16T08:58:28.931Z,1007.45
2017-09-16T08:59:38.092Z,1007.44
2017-09-16T09:00:46.921Z,1007.42
2017-09-16T09:01:55.763Z,1007.42
2017-09-16T09:03:04.600Z,1007.41
2017-09-16T09:04:13.438Z,1007.43
2017-09-16T09:05:22.626Z,1007.42
2017-09-16T09:06:31.466Z,1007.41
2017-09-16T09:07:40.618Z,1007.39
2017-09-16T09:08:49.453Z,1007.42
2017-09-16T09:09:58.284Z,1007.41
2017-09-16T09:11:07.125Z,1007.38
2017-09-16T09:12:15.967Z,1007.39
2017-09-16T09:13:24.797Z,1007.34
2017-09-16T09:14:33.958Z,1007.38
2017-09-16T09:15:42.791Z,1007.4
2017-09-16T09:16:51.622Z,1007.36
2017-09-16T09:18:00.465Z,1007.35
2017-09-16T09:19:09.300Z,1007.39
2017-09-16T09:20:18.136Z,1007.45
2017-09-16T09:21:26.970Z,1007.47
2017-09-16T09:22:35.809Z,1007.45
2017-09-16T09:23:44.644Z,1007.5
2017-09-16T09:24:53.481Z,1007.48
2017-09-16T09:26:02.317Z,1007.49
2017-09-16T09:27:11.150Z,1007.51
2017-09-16T09:28:19.990Z,1007.51
2017-09-16T09:29:28.826Z,1007.51
2017-09-16T09:30:37.669Z,1007.52
2017-09-16T09:31:46.504Z,1007.56
2017-09-16T09:32:55.342Z,1007.55
2017-09-16T09:34:04.178Z,1007.51
2017-09-16T09:35:13.015Z,1007.49
2017-09-16T09:36:21.853Z,1007.46
2017-09-16T09:37:30.689Z,1007.43
2017-09-16T09:38:39.523Z,1007.44
2017-09-16T09:39:48.361Z,1007.43
2017-09-16T09:40:57.201Z,1007.44
2017-09-16T09:42:06.032Z,1007.45
2017-09-16T09:43:14.869Z,1007.46
2017-09-16T09:44:23.708Z,1007.5
2017-09-16T09:45:32.548Z,1007.52
2017-09-16T09:46:41.386Z,1007.53
2017-09-16T09:47:50.224Z,1007.54
2017-09-16T09:48:59.058Z,1007.55
2017-09-16T09:50:08.215Z,1007.69
2017-09-16T09:51:17.061Z,1007.65
2017-09-16T09:52:25.898Z,1007.69
2017-09-16T09:53:34.737Z,1007.71
2017-09-16T09:54:43.566Z,1007.71
2017-09-16T09:55:52.398Z,1007.7
2017-09-16T09:57:01.241Z,1007.64
2017-09-16T09:58:10.081Z,1007.63
2017-09-16T09:59:18.914Z,1007.59
2017-09-16T10:00:27.751Z,1007.59
2017-09-16T10:01:36.591Z,1007.55
2017-09-16T10:02:45.424Z,1007.55
2017-09-16T10:03:54.261Z,1007.5
2017-09-16T10:05:03.097Z,1007.49
2017-09-16T10:06:11.933Z,1007.53
2017-09-16T10:07:20.774Z,1007.59
2017-09-16T10:08:29.612Z,1007.62
2017-09-16T10:09:38.448Z,1007.62
2017-09-16T10:10:47.280Z,1007.65
2017-09-16T10:11:56.121Z,1007.65
2017-09-16T10:13:04.956Z,1007.63
2017-09-16T10:14:13.791Z,1007.63
2017-09-16T10:15:22.633Z,1007.59
2017-09-16T10:16:31.463Z,1007.6
2017-09-16T10:17:40.309Z,1007.56
2017-09-16T10:18:49.151Z,1007.53
2017-09-16T10:19:57.988Z,1007.52
2017-09-16T10:21:06.824Z,1007.5
2017-09-16T10:22:15.665Z,1007.51
2017-09-16T10:23:24.817Z,1007.55
2017-09-16T10:24:33.656Z,1007.54
2017-09-16T10:25:42.496Z,1007.51
2017-09-16T10:26:51.328Z,1007.49
2017-09-16T10:28:00.166Z,1007.41
2017-09-16T10:29:09.009Z,1007.44
2017-09-16T10:30:17.846Z,1007.41
2017-09-16T10:31:26.684Z,1007.37
2017-09-16T10:32:35.521Z,1007.37
2017-09-16T10:33:44.354Z,1007.37
2017-09-16T10:34:53.189Z,1007.35
2017-09-16T10:36:02.028Z,1007.38
2017-09-16T10:37:10.864Z,1007.36
2017-09-16T10:38:19.701Z,1007.36
2017-09-16T10:39:28.538Z,1007.3
2017-09-16T10:40:37.375Z,1007.34
2017-09-16T10:41:46.213Z,1007.29
2017-09-16T10:42:55.053Z,1007.33
2017-09-16T10:44:03.891Z,1007.34
2017-09-16T10:45:12.722Z,1007.27
2017-09-16T10:46:21.567Z,1007.3
2017-09-16T10:47:30.405Z,1007.33
2017-09-16T10:48:39.245Z,1007.38
2017-09-16T10:49:48.078Z,1007.39
2017-09-16T10:50:56.914Z,1007.38
2017-09-16T10:52:05.750Z,1007.4
2017-09-16T10:53:14.594Z,1007.43
2017-09-16T10:54:23.432Z,1007.45
2017-09-16T10:55:32.269Z,1007.44
2017-09-16T10:56:41.111Z,1007.45
2017-09-16T10:57:49.941Z,1007.45
2017-09-16T10:58:58.781Z,1007.56
2017-09-16T11:00:07.615Z,1007.57
2017-09-16T11:01:16.457Z,1007.52
2017-09-16T11:02:25.310Z,1007.55
2017-09-16T11:03:34.142Z,1007.48
2017-09-16T11:04:42.982Z,1007.45
2017-09-16T11:05:51.817Z,1007.45
2017-09-16T11:07:00.658Z,1007.46
2017-09-16T11:08:09.497Z,1007.44
2017-09-16T11:09:18.335Z,1007.4
2017-09-16T11:10:27.171Z,1007.36
2017-09-16T11:11:36.005Z,1007.38
2017-09-16T11:12:44.851Z,1007.35
2017-09-16T11:13:53.686Z,1007.38
2017-09-16T11:15:02.528Z,1007.31
2017-09-16T11:16:11.366Z,1007.34
2017-09-16T11:17:20.200Z,1007.38
2017-09-16T11:18:29.033Z,1007.39
2017-09-16T11:19:37.875Z,1007.35
2017-09-16T11:20:46.723Z,1007.37
2017-09-16T11:21:55.552Z,1007.33
2017-09-16T11:23:04.389Z,1007.3
2017-09-16T11:24:13.226Z,1007.3
2017-09-16T11:25:22.063Z,1007.32
2017-09-16T11:26:30.901Z,1007.29
2017-09-16T11:27:39.737Z,1007.24
2017-09-16T11:28:48.572Z,1007.28
2017-09-16T11:29:57.412Z,1007.28
2017-09-16T11:31:06.250Z,1007.28
2017-09-16T11:32:15.081Z,1007.3
2017-09-16T11:33:23.923Z,1007.31
2017-09-16T11:34:32.760Z,1007.31
2017-09-16T11:35:41.598Z,1007.34
2017-09-16T11:36:50.437Z,1007.4
2017-09-16T11:37:59.280Z,1007.35
2017-09-16T11:39:08.115Z,1007.33
2017-09-16T11:40:16.950Z,1007.33
2017-09-16T11:41:25.794Z,1007.31
2017-09-16T11:42:34.630Z,1007.29
2017-09-16T11:43:43.470Z,1007.29
2017-09-16T11:44:52.301Z,1007.27
2017-09-16T11:46:01.139Z,1007.27
2017-09-16T11:47:09.979Z,1007.24
2017-09-16T11:48:18.816Z,1007.25
2017-09-16T11:49:27.654Z,1007.26
2017-09-16T11:50:36.490Z,1007.27
2017-09-16T11:51:45.327Z,1007.28
2017-09-16T11:52:54.161Z,1007.27
2017-09-16T11:54:03.003Z,1007.28
2017-09-16T11:55:11.836Z,1007.35
2017-09-16T11:56:20.675Z,1007.36
2017-09-16T11:57:29.511Z,1007.34
2017-09-16T11:58:38.357Z,1007.34
2017-09-16T11:59:47.194Z,1007.36
2017-09-16T12:00:56.029Z,1007.32
2017-09-16T12:02:04.873Z,1007.28
2017-09-16T12:03:13.709Z,1007.28
2017-09-16T12:04:22.545Z,1007.26
2017-09-16T12:05:31.382Z,1007.28
2017-09-16T12:06:40.219Z,1007.27
2017-09-16T12:07:49.055Z,1007.24
2017-09-16T12:08:57.897Z,1007.22
2017-09-16T12:10:06.737Z,1007.16
2017-09-16T12:11:15.570Z,1007.15
2017-09-16T12:12:24.412Z,1007.12
2017-09-16T12:13:33.248Z,1007.12
2017-09-16T12:14:42.090Z,1007.16
2017-09-16T12:15:51.250Z,1007.17
2017-09-16T12:17:00.085Z,1007.12
2017-09-16T12:18:08.921Z,1007.11
2017-09-16T12:19:17.759Z,1007.11
2017-09-16T12:20:26.924Z,1007.07
2017-09-16T12:21:35.760Z,1007.1
2017-09-16T12:22:44.605Z,1007.15
2017-09-16T12:23:53.768Z,1007.13
2017-09-16T12:25:02.604Z,1007.1
2017-09-16T12:26:11.445Z,1007.12
2017-09-16T12:27:20.281Z,1007.16
2017-09-16T12:28:29.119Z,1007.12
2017-09-16T12:29:37.954Z,1007.12
2017-09-16T12:30:46.794Z,1007.13
2017-09-16T12:31:55.632Z,1007.12
2017-09-16T12:33:04.471Z,1007.07
2017-09-16T12:34:13.311Z,1007.06
2017-09-16T12:35:22.147Z,1007.04
2017-09-16T12:36:30.983Z,1007.07
2017-09-16T12:37:39.820Z,1007.02
2017-09-16T12:38:48.661Z,1007
2017-09-16T12:39:57.501Z,1006.97
2017-09-16T12:41:06.340Z,1006.98
2017-09-16T12:42:15.178Z,1007.02
2017-09-16T12:43:24.021Z,1007.08
2017-09-16T12:44:32.859Z,1007.08
2017-09-16T12:45:41.693Z,1007.06
2017-09-16T12:46:50.535Z,1007.06
2017-09-16T12:47:59.369Z,1007.09
2017-09-16T12:49:08.209Z,1007.11
2017-09-16T12:50:17.049Z,1007.15
2017-09-16T12:51:25.892Z,1007.13
2017-09-16T12:52:35.095Z,1007.18
2017-09-16T12:53:43.937Z,1007.17
2017-09-16T12:54:52.775Z,1007.16
2017-09-16T12:56:01.608Z,1007.16
2017-09-16T12:57:10.446Z,1007.15
2017-09-16T12:58:19.280Z,1007.11
2017-09-16T12:59:28.117Z,1007.11
2017-09-16T13:00:36.959Z,1007.11
2017-09-16T13:01:45.799Z,1007.1
2017-09-16T13:02:54.630Z,1007.12
2017-09-16T13:04:03.471Z,1007.17
2017-09-16T13:05:12.305Z,1007.14
2017-09-16T13:06:21.142Z,1007.16
2017-09-16T13:07:29.981Z,1007.17
2017-09-16T13:08:38.816Z,1007.16
2017-09-16T13:09:47.654Z,1007.16
2017-09-16T13:10:56.496Z,1007.16
2017-09-16T13:12:05.337Z,1007.17
2017-09-16T13:13:14.173Z,1007.17
2017-09-16T13:14:23.012Z,1007.19
2017-09-16T13:15:31.849Z,1007.2
2017-09-16T13:16:40.686Z,1007.17
2017-09-16T13:17:49.526Z,1007.16
2017-09-16T13:18:58.360Z,1007.15
2017-09-16T13:20:07.200Z,1007.14
2017-09-16T13:21:16.037Z,1007.19
2017-09-16T13:22:24.878Z,1007.14
2017-09-16T13:23:33.712Z,1007.19
2017-09-16T13:24:42.869Z,1007.22
2017-09-16T13:25:51.710Z,1007.17
2017-09-16T13:27:00.544Z,1007.19
2017-09-16T13:28:09.381Z,1007.24
2017-09-16T13:29:18.219Z,1007.19
2017-09-16T13:30:27.061Z,1007.23
2017-09-16T13:31:36.214Z,1007.18
2017-09-16T13:32:45.052Z,1007.15
2017-09-16T13:33:53.887Z,1007.15
2017-09-16T13:35:02.727Z,1007.2
2017-09-16T13:36:11.569Z,1007.18
2017-09-16T13:37:20.399Z,1007.22
2017-09-16T13:38:29.235Z,1007.17
2017-09-16T13:39:38.077Z,1007.2
2017-09-16T13:40:46.917Z,1007.2
2017-09-16T13:41:55.753Z,1007.24
2017-09-16T13:43:04.595Z,1007.31
2017-09-16T13:44:13.429Z,1007.28
2017-09-16T13:45:22.263Z,1007.27
2017-09-16T13:46:31.106Z,1007.26
2017-09-16T13:47:39.944Z,1007.22
2017-09-16T13:48:48.784Z,1007.26
2017-09-16T13:49:57.946Z,1007.22
2017-09-16T13:51:06.780Z,1007.22
2017-09-16T13:52:15.620Z,1007.24
2017-09-16T13:53:24.460Z,1007.22
2017-09-16T13:54:33.302Z,1007.24
2017-09-16T13:55:42.140Z,1007.27